Time;durP1;ratioP1;P1;durP2;ratioP2;P2;SDS_P1;SDS_P2;PMS_P1;PMS_P2;Temp;Humidity;BMP_temperature;BMP_pressure;BME280_temperature;BME280_humidity;BME280_pressure;Samples;Min_cycle;Max_cycle;Signal;HPM_P1;HPM_P2
2021/12/18 00:00:24;;;;;;;16.10;2.87;;;7.40;99.90;;;;;;5086911;28;21185;-76
2021/12/18 00:02:50;;;;;;;21.73;3.90;;;7.40;99.90;;;;;;5107557;28;20428;-75
2021/12/18 00:05:15;;;;;;;18.38;3.50;;;7.40;99.90;;;;;;5088394;28;20410;-76
2021/12/18 00:07:41;;;;;;;15.50;3.90;;;7.40;99.90;;;;;;5107819;28;20445;-75
2021/12/18 00:10:07;;;;;;;16.53;3.60;;;7.40;99.90;;;;;;5090047;28;20545;-76
2021/12/18 00:12:33;;;;;;;18.05;4.15;;;7.40;99.90;;;;;;5090326;28;20419;-75
2021/12/18 00:14:59;;;;;;;16.15;4.15;;;7.40;99.90;;;;;;5073747;28;20883;-74
2021/12/18 00:17:24;;;;;;;13.20;3.13;;;7.40;99.90;;;;;;5090235;28;20465;-75
2021/12/18 00:19:50;;;;;;;12.90;2.70;;;7.40;99.90;;;;;;5073422;28;20422;-75
2021/12/18 00:22:16;;;;;;;12.67;2.60;;;7.40;99.90;;;;;;5093772;28;20785;-75
2021/12/18 00:24:41;;;;;;;12.15;2.60;;;7.40;99.90;;;;;;5112619;28;20392;-75
2021/12/18 00:27:07;;;;;;;10.27;2.10;;;7.40;99.90;;;;;;5094167;28;20866;-75
2021/12/18 00:29:33;;;;;;;11.67;2.50;;;7.40;99.90;;;;;;5112666;28;20820;-74
2021/12/18 00:31:59;;;;;;;9.82;2.30;;;7.30;99.90;;;;;;5094530;28;20397;-75
2021/12/18 00:34:25;;;;;;;10.15;2.10;;;7.30;99.90;;;;;;5094037;28;20404;-74
2021/12/18 00:36:51;;;;;;;11.03;2.67;;;7.30;99.90;;;;;;5094046;28;20886;-77
2021/12/18 00:39:17;;;;;;;13.77;2.85;;;7.30;99.90;;;;;;5094479;28;20400;-75
2021/12/18 00:44:13;;;;;;;16.42;3.30;;;7.30;99.90;;;;;;5094009;28;20914;-75
2021/12/18 00:46:43;;;;;;;12.82;2.75;;;7.30;99.90;;;;;;5112263;28;20424;-75
2021/12/18 00:49:13;;;;;;;7.85;2.17;;;7.30;99.90;;;;;;5111953;28;20456;-75
2021/12/18 00:51:38;;;;;;;5.45;1.40;;;7.30;99.90;;;;;;5094247;28;20420;-75
2021/12/18 00:54:04;;;;;;;5.45;1.48;;;7.30;99.90;;;;;;5111879;28;20404;-75
2021/12/18 00:56:30;;;;;;;6.63;1.50;;;7.30;99.90;;;;;;5094026;28;20575;-75
2021/12/18 00:58:56;;;;;;;7.63;1.90;;;7.30;99.90;;;;;;5111886;28;20882;-77
2021/12/18 01:01:23;;;;;;;7.85;2.00;;;7.30;99.90;;;;;;5100753;28;20409;-77
2021/12/18 01:03:50;;;;;;;7.97;1.70;;;7.30;99.90;;;;;;5091486;28;20394;-77
2021/12/18 01:06:18;;;;;;;8.77;1.55;;;7.20;99.90;;;;;;5090148;28;20405;-75
2021/12/18 01:08:45;;;;;;;9.20;1.95;;;7.20;99.90;;;;;;5090085;28;20770;-75
2021/12/18 01:14:28;;;;;;;9.82;1.88;;;7.20;99.90;;;;;;5090317;28;20402;-75
2021/12/18 01:16:48;;;;;;;11.00;2.15;;;7.30;99.90;;;;;;5087180;28;20453;-75
2021/12/18 01:22:43;;;;;;;11.10;3.30;;;7.20;99.90;;;;;;5089714;28;20483;-75
2021/12/18 01:24:46;;;;;;;12.65;3.65;;;7.30;99.90;;;;;;5089621;28;20433;-75
2021/12/18 01:27:12;;;;;;;12.20;4.10;;;7.30;99.90;;;;;;5080361;28;20898;-75
2021/12/18 01:29:38;;;;;;;13.90;4.10;;;7.30;99.90;;;;;;5077044;28;20406;-75
2021/12/18 01:32:04;;;;;;;14.02;4.10;;;7.20;99.90;;;;;;5108683;28;20419;-75
2021/12/18 01:34:30;;;;;;;16.00;4.10;;;7.20;99.90;;;;;;5089952;28;20402;-75
2021/12/18 01:36:56;;;;;;;13.07;3.80;;;7.20;99.90;;;;;;5089924;28;20416;-75
2021/12/18 01:39:22;;;;;;;13.82;4.18;;;7.30;99.90;;;;;;5089696;28;20409;-75
2021/12/18 01:51:14;;;;;;;22.67;5.93;;;7.30;99.90;;;;;;5092612;28;20815;-75
2021/12/18 01:52:33;;;;;;;23.05;5.82;;;7.30;99.90;;;;;;5092622;28;20423;-77
2021/12/18 01:54:59;;;;;;;30.40;6.32;;;7.30;99.90;;;;;;5092578;28;20461;-75
2021/12/18 01:57:25;;;;;;;20.98;5.13;;;7.30;99.90;;;;;;5075583;28;20913;-75
2021/12/18 01:59:51;;;;;;;31.63;5.88;;;7.30;99.90;;;;;;5091648;28;20409;-75
2021/12/18 02:02:18;;;;;;;29.75;5.82;;;7.30;99.90;;;;;;5072298;28;20430;-75
2021/12/18 02:04:44;;;;;;;38.85;6.15;;;7.30;99.90;;;;;;5089126;28;20473;-75
2021/12/18 02:07:11;;;;;;;27.80;5.65;;;7.30;99.90;;;;;;5072244;28;20413;-74
2021/12/18 02:10:03;;;;;;;28.65;5.80;;;7.30;99.90;;;;;;5071660;28;20415;-75
2021/12/18 02:12:31;;;;;;;27.27;4.80;;;7.30;99.90;;;;;;5088773;28;20409;-75
2021/12/18 02:23:02;;;;;;;26.67;5.00;;;7.30;99.90;;;;;;5076429;28;20441;-75
2021/12/18 02:25:30;;;;;;;35.70;5.53;;;7.30;99.90;;;;;;5088611;28;20401;-75
2021/12/18 02:27:57;;;;;;;27.70;4.68;;;7.40;99.90;;;;;;5088320;28;20410;-75
2021/12/18 02:30:24;;;;;;;29.92;4.80;;;7.30;99.90;;;;;;5088521;28;20445;-74
2021/12/18 02:32:50;;;;;;;26.57;4.60;;;7.30;99.90;;;;;;5088261;28;20446;-75
2021/12/18 02:35:26;;;;;;;22.20;4.25;;;7.40;99.90;;;;;;5091874;28;20739;-75
2021/12/18 02:38:01;;;;;;;21.63;4.22;;;7.30;99.90;;;;;;5091569;28;20766;-75
2021/12/18 02:43:13;;;;;;;26.15;4.82;;;7.40;99.90;;;;;;5090796;28;20436;-75
2021/12/18 02:45:39;;;;;;;20.60;4.40;;;7.40;99.90;;;;;;5091224;28;20408;-75
2021/12/18 02:48:05;;;;;;;16.98;4.22;;;7.40;99.90;;;;;;5109755;28;20403;-75
2021/12/18 02:50:31;;;;;;;22.65;4.55;;;7.40;99.90;;;;;;5091626;28;20746;-75
2021/12/18 02:52:57;;;;;;;17.95;4.30;;;7.40;99.90;;;;;;5109048;28;20397;-77
2021/12/18 02:55:22;;;;;;;17.60;4.20;;;7.40;99.90;;;;;;5091086;28;20389;-75
2021/12/18 02:57:48;;;;;;;19.80;4.47;;;7.40;99.90;;;;;;5108427;28;20400;-73
2021/12/18 03:00:14;;;;;;;29.83;5.37;;;7.40;99.90;;;;;;5090278;28;20479;-77
2021/12/18 03:02:43;;;;;;;16.10;4.18;;;7.40;99.90;;;;;;5073638;28;20952;-75
2021/12/18 03:05:14;;;;;;;18.55;3.15;;;7.40;99.90;;;;;;5090846;28;20404;-74
2021/12/18 03:07:40;;;;;;;23.10;3.40;;;7.40;99.90;;;;;;5090315;28;21043;-75
2021/12/18 03:25:59;;;;;;;18.92;2.40;;;7.40;99.90;;;;;;5090175;28;20401;-75
2021/12/18 03:28:26;;;;;;;13.25;2.38;;;7.40;99.90;;;;;;5108326;28;20911;-75
2021/12/18 03:30:52;;;;;;;27.70;2.23;;;7.40;99.90;;;;;;5108167;28;20439;-75
2021/12/18 03:33:18;;;;;;;15.57;2.33;;;7.40;99.90;;;;;;5090404;28;20405;-75
2021/12/18 03:35:47;;;;;;;22.70;2.73;;;7.30;99.90;;;;;;5074298;28;20402;-75
2021/12/18 03:38:14;;;;;;;33.70;3.10;;;7.30;99.90;;;;;;5087490;28;20393;-75
2021/12/18 03:40:40;;;;;;;34.03;3.13;;;7.30;99.90;;;;;;5069200;28;20904;-75
2021/12/18 03:43:06;;;;;;;30.80;3.20;;;7.30;99.90;;;;;;5069404;28;20438;-75
2021/12/18 03:45:32;;;;;;;18.85;2.65;;;7.30;99.90;;;;;;5087584;28;20405;-75
2021/12/18 03:47:57;;;;;;;23.50;2.75;;;7.30;99.90;;;;;;5068978;28;20401;-75
2021/12/18 03:50:23;;;;;;;20.25;2.75;;;7.30;99.90;;;;;;5069158;28;20402;-75
2021/12/18 03:52:49;;;;;;;26.13;3.10;;;7.30;99.90;;;;;;5087414;28;20398;-75
2021/12/18 03:55:17;;;;;;;27.13;3.35;;;7.30;99.90;;;;;;5069172;28;20409;-75
2021/12/18 03:57:42;;;;;;;34.20;3.38;;;7.30;99.90;;;;;;5086813;28;20406;-74
2021/12/18 04:00:12;;;;;;;32.13;3.40;;;7.30;99.90;;;;;;5069205;28;20763;-75
2021/12/18 04:02:39;;;;;;;32.35;3.55;;;7.30;99.90;;;;;;5052676;28;20437;-75
2021/12/18 04:05:05;;;;;;;37.05;4.03;;;7.30;99.90;;;;;;5069401;28;20788;-76
2021/12/18 04:07:30;;;;;;;37.53;4.75;;;7.30;99.90;;;;;;5051904;28;20922;-76
2021/12/18 04:09:56;;;;;;;44.45;4.47;;;7.30;99.90;;;;;;5086773;28;20410;-76
2021/12/18 04:12:22;;;;;;;41.80;4.70;;;7.30;99.90;;;;;;5069458;28;20421;-75
2021/12/18 04:14:48;;;;;;;40.73;5.20;;;7.40;99.90;;;;;;5086840;28;20390;-75
2021/12/18 04:17:14;;;;;;;35.70;5.03;;;7.40;99.90;;;;;;5052572;28;20729;-74
2021/12/18 04:19:39;;;;;;;37.33;5.22;;;7.40;99.90;;;;;;5068866;28;20405;-75
2021/12/18 04:22:05;;;;;;;18.23;4.03;;;7.40;99.90;;;;;;5068585;28;20789;-75
2021/12/18 04:24:31;;;;;;;17.77;3.90;;;7.40;99.90;;;;;;5068837;28;20405;-74
2021/12/18 04:26:57;;;;;;;20.57;4.07;;;7.40;99.90;;;;;;5087110;28;20413;-75
2021/12/18 04:29:23;;;;;;;21.97;4.27;;;7.40;99.90;;;;;;5069157;28;20493;-74
2021/12/18 04:31:48;;;;;;;29.07;4.97;;;7.50;99.90;;;;;;5052153;28;20909;-75
2021/12/18 04:34:14;;;;;;;18.73;4.22;;;7.40;99.90;;;;;;5089960;28;20404;-75
2021/12/18 04:36:40;;;;;;;17.88;4.00;;;7.50;99.90;;;;;;5089425;28;20411;-75
2021/12/18 04:39:06;;;;;;;17.93;4.40;;;7.50;99.90;;;;;;5072008;28;20514;-75
2021/12/18 04:41:38;;;;;;;17.37;3.90;;;7.50;99.90;;;;;;5088778;28;20404;-75
2021/12/18 04:44:05;;;;;;;15.00;3.63;;;7.40;99.90;;;;;;5072158;28;21203;-74
2021/12/18 04:46:30;;;;;;;12.65;3.13;;;7.50;99.90;;;;;;5072895;28;20438;-74
2021/12/18 04:48:56;;;;;;;8.35;2.60;;;7.50;99.90;;;;;;5090008;28;20921;-74
2021/12/18 04:51:21;;;;;;;12.90;3.13;;;7.50;99.90;;;;;;5090277;28;20769;-74
2021/12/18 04:53:47;;;;;;;8.18;2.70;;;7.50;99.90;;;;;;5090080;28;20872;-75
2021/12/18 04:56:13;;;;;;;9.20;2.90;;;7.60;99.90;;;;;;5108046;28;20398;-75
2021/12/18 04:58:39;;;;;;;9.57;3.17;;;7.50;99.90;;;;;;5108345;28;20392;-75
2021/12/18 05:01:05;;;;;;;13.83;4.30;;;7.60;99.90;;;;;;5107166;28;21214;-75
2021/12/18 05:03:31;;;;;;;10.97;4.53;;;7.60;99.90;;;;;;5089720;28;20432;-74
2021/12/18 05:06:00;;;;;;;11.43;4.70;;;7.60;99.90;;;;;;5072692;28;20936;-75
2021/12/18 05:08:26;;;;;;;12.77;4.80;;;7.60;99.90;;;;;;5092435;28;20438;-74
2021/12/18 05:10:51;;;;;;;14.47;4.87;;;7.60;99.90;;;;;;5093685;28;20412;-75
2021/12/18 05:13:17;;;;;;;15.07;4.72;;;7.60;99.90;;;;;;5093743;28;20412;-74
2021/12/18 05:15:43;;;;;;;16.02;5.18;;;7.60;99.90;;;;;;5093600;28;20404;-75
2021/12/18 05:18:08;;;;;;;15.57;5.07;;;7.60;99.90;;;;;;5093028;28;20401;-75
2021/12/18 05:20:34;;;;;;;15.40;4.93;;;7.60;99.90;;;;;;5093603;28;20408;-75
2021/12/18 05:23:00;;;;;;;13.90;4.57;;;7.60;99.90;;;;;;5093277;28;20902;-75
2021/12/18 05:25:25;;;;;;;15.73;5.20;;;7.60;99.90;;;;;;5093483;28;20400;-75
2021/12/18 05:27:51;;;;;;;24.67;6.03;;;7.60;99.90;;;;;;5092956;28;20408;-75
2021/12/18 05:30:17;;;;;;;23.00;6.07;;;7.60;99.90;;;;;;5093112;28;20392;-75
2021/12/18 05:32:51;;;;;;;22.33;5.70;;;7.60;99.90;;;;;;5111714;28;20458;-75
2021/12/18 05:35:18;;;;;;;20.65;5.97;;;7.70;99.90;;;;;;5081425;28;20402;-75
2021/12/18 05:40:16;;;;;;;23.40;6.72;;;7.70;99.90;;;;;;5091038;28;20773;-75
2021/12/18 05:42:42;;;;;;;25.75;7.40;;;7.60;99.90;;;;;;5055636;28;20437;-75
2021/12/18 05:45:08;;;;;;;30.03;8.17;;;7.70;99.90;;;;;;5072452;28;20484;-75
2021/12/18 05:47:34;;;;;;;35.38;10.05;;;7.70;99.90;;;;;;5072373;28;20451;-75
2021/12/18 05:50:00;;;;;;;31.10;10.07;;;7.70;99.90;;;;;;5072553;28;20525;-75
2021/12/18 05:52:27;;;;;;;29.65;9.88;;;7.70;99.90;;;;;;5072651;28;20406;-75
2021/12/18 05:54:52;;;;;;;35.72;10.10;;;7.70;99.90;;;;;;5090308;28;20823;-75
2021/12/18 05:57:18;;;;;;;31.27;10.02;;;7.70;99.90;;;;;;5072190;28;20489;-75
2021/12/18 05:59:44;;;;;;;29.63;10.32;;;7.70;99.90;;;;;;5071961;28;20397;-75
2021/12/18 06:02:11;;;;;;;31.63;10.68;;;7.70;99.90;;;;;;5072413;28;20422;-75
2021/12/18 06:04:36;;;;;;;28.25;10.10;;;7.70;99.90;;;;;;5071536;28;20390;-75
2021/12/18 06:07:04;;;;;;;28.85;10.10;;;7.70;99.90;;;;;;5072434;28;20484;-75
2021/12/18 06:09:31;;;;;;;32.58;10.68;;;7.70;99.90;;;;;;5090123;28;20460;-75
2021/12/18 06:11:58;;;;;;;33.33;10.48;;;7.70;99.90;;;;;;5071512;28;20489;-75
2021/12/18 06:14:24;;;;;;;40.72;11.15;;;7.70;99.90;;;;;;5090146;28;20421;-75
2021/12/18 06:16:50;;;;;;;33.50;11.48;;;7.80;99.90;;;;;;5072183;28;20409;-75
2021/12/18 06:19:15;;;;;;;36.22;11.02;;;7.80;99.90;;;;;;5071858;28;20425;-75
2021/12/18 06:21:42;;;;;;;31.25;10.60;;;7.80;99.90;;;;;;5055007;28;20414;-75
2021/12/18 06:24:07;;;;;;;35.63;11.27;;;7.80;99.90;;;;;;5071668;28;20473;-75
2021/12/18 06:26:33;;;;;;;31.80;10.38;;;7.80;99.90;;;;;;5055096;28;20512;-75
2021/12/18 06:28:59;;;;;;;28.65;9.23;;;7.80;99.90;;;;;;5054787;28;20447;-75
2021/12/18 06:31:25;;;;;;;29.10;9.47;;;7.80;99.90;;;;;;5071528;28;20421;-74
2021/12/18 06:33:51;;;;;;;27.77;8.65;;;7.90;99.90;;;;;;5089642;28;20496;-74
2021/12/18 06:36:17;;;;;;;24.38;8.32;;;7.90;99.90;;;;;;5109888;28;20988;-74
2021/12/18 06:38:43;;;;;;;18.67;6.90;;;7.90;99.90;;;;;;5110238;28;20393;-74
2021/12/18 06:41:09;;;;;;;15.00;5.55;;;7.90;99.90;;;;;;5109617;28;20483;-74
2021/12/18 06:43:34;;;;;;;15.10;5.25;;;7.90;99.90;;;;;;5091915;28;20472;-74
2021/12/18 06:46:00;;;;;;;11.23;3.90;;;7.90;99.90;;;;;;5108873;28;20866;-74
2021/12/18 06:48:26;;;;;;;11.10;3.23;;;7.90;99.90;;;;;;5109899;28;20408;-74
2021/12/18 06:50:51;;;;;;;11.82;3.47;;;8.00;99.90;;;;;;5109977;28;20396;-74
2021/12/18 06:53:18;;;;;;;8.55;2.97;;;8.00;99.90;;;;;;5091806;28;20431;-74
2021/12/18 06:55:43;;;;;;;9.60;3.20;;;7.90;99.90;;;;;;5091226;28;20507;-74
2021/12/18 06:58:09;;;;;;;8.32;3.00;;;8.00;99.90;;;;;;5091653;28;20400;-74
2021/12/18 07:00:35;;;;;;;10.30;3.10;;;8.00;99.90;;;;;;5091677;28;20400;-75
2021/12/18 07:03:01;;;;;;;11.02;3.53;;;8.00;99.90;;;;;;5091297;28;20952;-74
2021/12/18 07:05:26;;;;;;;12.95;3.60;;;8.00;99.90;;;;;;5091148;28;20534;-74
2021/12/18 07:07:52;;;;;;;10.40;3.10;;;8.00;99.90;;;;;;5091004;28;20759;-74
2021/12/18 07:10:18;;;;;;;10.93;3.65;;;8.00;99.90;;;;;;5091560;28;20408;-74
2021/12/18 07:12:44;;;;;;;11.20;3.73;;;8.00;99.90;;;;;;5091369;28;20506;-74
2021/12/18 07:15:11;;;;;;;11.57;3.60;;;8.00;99.90;;;;;;5090753;28;20472;-74
2021/12/18 07:17:37;;;;;;;12.60;3.60;;;8.00;99.90;;;;;;5091343;28;20400;-74
2021/12/18 07:20:04;;;;;;;11.98;3.85;;;8.00;99.90;;;;;;5091239;28;20412;-74
2021/12/18 07:22:30;;;;;;;10.93;3.75;;;8.00;99.90;;;;;;5090501;28;20444;-74
2021/12/18 07:24:56;;;;;;;11.93;4.00;;;8.00;99.90;;;;;;5090736;28;20407;-74
2021/12/18 07:27:21;;;;;;;12.95;4.10;;;8.10;99.90;;;;;;5091102;28;20396;-74
2021/12/18 07:29:47;;;;;;;14.93;4.80;;;8.00;99.90;;;;;;5090305;28;20836;-74
2021/12/18 07:32:12;;;;;;;9.85;4.53;;;8.10;99.90;;;;;;5091068;28;20459;-74
2021/12/18 07:34:38;;;;;;;15.45;5.40;;;8.10;99.90;;;;;;5102676;28;20860;-74
2021/12/18 07:37:04;;;;;;;12.23;5.20;;;8.10;99.90;;;;;;5087371;28;20791;-74
2021/12/18 07:39:29;;;;;;;16.10;5.07;;;8.10;99.90;;;;;;5088743;28;20456;-74
2021/12/18 07:41:55;;;;;;;11.48;4.85;;;8.10;99.90;;;;;;5089620;28;20067;-74
2021/12/18 07:44:21;;;;;;;14.57;4.13;;;8.10;99.90;;;;;;5090084;28;20044;-74
2021/12/18 07:46:46;;;;;;;12.82;3.30;;;8.10;99.90;;;;;;5088401;28;20489;-74
2021/12/18 07:49:12;;;;;;;14.85;3.60;;;8.10;99.90;;;;;;5071966;28;20512;-74
2021/12/18 07:51:38;;;;;;;15.57;3.78;;;8.10;99.90;;;;;;5088613;28;20410;-74
2021/12/18 07:54:06;;;;;;;11.50;3.42;;;8.10;99.90;;;;;;5088283;28;20044;-74
2021/12/18 07:56:32;;;;;;;10.45;3.40;;;8.10;99.90;;;;;;5071861;28;20044;-74
2021/12/18 07:58:58;;;;;;;15.93;3.63;;;8.20;99.90;;;;;;5088548;28;20048;-74
2021/12/18 08:01:24;;;;;;;11.88;3.90;;;8.20;99.90;;;;;;5088343;28;20055;-74
2021/12/18 08:03:49;;;;;;;16.40;4.38;;;8.20;99.90;;;;;;5087795;28;20047;-74
2021/12/18 08:06:15;;;;;;;15.63;3.90;;;8.20;99.90;;;;;;5088532;28;20079;-75
2021/12/18 08:08:41;;;;;;;13.52;3.75;;;8.20;99.90;;;;;;5087807;28;20131;-74
2021/12/18 08:11:07;;;;;;;15.48;4.15;;;8.20;99.90;;;;;;5086849;28;20402;-74
2021/12/18 08:13:33;;;;;;;13.82;3.67;;;8.20;99.90;;;;;;5069850;28;20405;-74
2021/12/18 08:15:59;;;;;;;16.83;4.13;;;8.20;99.90;;;;;;5086771;28;20419;-74
2021/12/18 08:18:24;;;;;;;14.10;3.65;;;8.20;99.90;;;;;;5069953;28;20454;-74
2021/12/18 08:20:50;;;;;;;14.00;3.57;;;8.20;99.90;;;;;;5070055;28;20908;-74
2021/12/18 08:23:16;;;;;;;14.30;3.85;;;8.30;99.90;;;;;;5086828;28;20437;-75
2021/12/18 08:25:42;;;;;;;13.73;3.53;;;8.30;99.90;;;;;;5086818;28;20492;-75
2021/12/18 08:28:08;;;;;;;17.20;4.20;;;8.30;99.90;;;;;;5086354;28;20499;-76
2021/12/18 08:30:35;;;;;;;15.13;4.20;;;8.30;99.90;;;;;;5087572;28;20413;-76
2021/12/18 08:33:02;;;;;;;15.00;4.03;;;8.30;99.90;;;;;;5086819;28;20410;-76
2021/12/18 08:35:29;;;;;;;19.92;4.40;;;8.30;99.90;;;;;;5089476;28;20925;-76
2021/12/18 08:37:56;;;;;;;15.50;4.00;;;8.30;99.90;;;;;;5090056;28;20400;-76
2021/12/18 08:40:22;;;;;;;15.73;4.03;;;8.30;99.90;;;;;;5090091;28;20452;-76
2021/12/18 08:42:48;;;;;;;17.98;4.30;;;8.30;99.90;;;;;;5109875;28;20528;-76
2021/12/18 08:45:14;;;;;;;13.93;3.50;;;8.40;99.90;;;;;;5094276;28;20883;-76
2021/12/18 08:47:41;;;;;;;17.17;3.90;;;8.40;99.90;;;;;;5095011;28;20530;-76
2021/12/18 08:50:10;;;;;;;14.13;3.40;;;8.40;99.90;;;;;;5082493;28;20398;-76
2021/12/18 08:52:35;;;;;;;14.20;3.30;;;8.40;99.90;;;;;;5076191;28;20770;-76
2021/12/18 08:55:02;;;;;;;19.27;4.07;;;8.40;99.90;;;;;;5085017;28;20402;-75
2021/12/18 08:57:28;;;;;;;13.55;3.10;;;8.40;99.90;;;;;;5107266;28;20502;-75
2021/12/18 08:59:54;;;;;;;13.98;3.05;;;8.40;99.90;;;;;;5092585;28;20487;-75
2021/12/18 09:02:19;;;;;;;13.77;2.87;;;8.40;99.90;;;;;;5071552;28;20420;-75
2021/12/18 09:04:45;;;;;;;15.07;3.35;;;8.50;99.90;;;;;;5075904;28;20404;-76
2021/12/18 09:07:11;;;;;;;11.83;2.43;;;8.50;99.90;;;;;;5088175;28;20398;-76
2021/12/18 09:09:37;;;;;;;12.23;3.00;;;8.50;99.90;;;;;;5067332;28;20402;-75
2021/12/18 09:12:03;;;;;;;11.85;2.65;;;8.50;99.90;;;;;;5070812;28;20497;-76
2021/12/18 09:14:28;;;;;;;12.65;2.38;;;8.50;99.90;;;;;;5068592;28;20420;-76
2021/12/18 09:16:54;;;;;;;12.65;2.38;;;8.50;99.90;;;;;;5089219;28;20405;-76
2021/12/18 09:19:20;;;;;;;17.27;3.00;;;8.50;99.90;;;;;;5072109;28;20824;-76
2021/12/18 09:21:46;;;;;;;12.23;3.10;;;8.50;99.90;;;;;;5072148;28;20497;-73
2021/12/18 09:24:12;;;;;;;12.63;3.10;;;8.50;99.90;;;;;;5072061;28;20524;-74
2021/12/18 09:26:38;;;;;;;12.43;3.05;;;8.60;99.90;;;;;;5064688;28;22088;-74
2021/12/18 09:29:03;;;;;;;10.18;2.70;;;8.60;99.90;;;;;;5063230;28;20485;-74
2021/12/18 09:31:29;;;;;;;12.73;2.60;;;8.60;99.90;;;;;;5072304;28;20469;-74
2021/12/18 09:33:55;;;;;;;13.38;2.83;;;8.70;99.90;;;;;;5056535;28;20500;-75
2021/12/18 09:36:21;;;;;;;10.07;2.58;;;8.60;99.90;;;;;;5072864;28;20911;-75
2021/12/18 09:38:46;;;;;;;15.13;2.67;;;8.70;99.90;;;;;;5055649;28;21073;-75
2021/12/18 09:41:12;;;;;;;13.75;2.70;;;8.70;99.90;;;;;;5070463;28;20917;-75
2021/12/18 09:43:39;;;;;;;14.45;2.78;;;8.70;99.90;;;;;;5077671;28;20433;-75
2021/12/18 09:46:11;;;;;;;14.32;3.00;;;8.70;99.90;;;;;;5073093;28;20858;-74
2021/12/18 09:48:38;;;;;;;12.52;2.83;;;8.70;99.90;;;;;;5072891;28;20417;-75
2021/12/18 09:51:08;;;;;;;11.15;2.45;;;8.70;99.90;;;;;;5072256;28;20418;-74
2021/12/18 09:53:35;;;;;;;11.60;2.55;;;8.70;99.90;;;;;;5071058;28;20776;-74
2021/12/18 09:56:03;;;;;;;12.48;3.08;;;8.70;99.90;;;;;;5072302;28;20483;-73
2021/12/18 09:58:29;;;;;;;13.30;4.22;;;8.80;99.90;;;;;;5090095;28;20481;-73
2021/12/18 10:00:55;;;;;;;16.20;3.30;;;8.80;99.90;;;;;;5070657;28;20489;-73
2021/12/18 10:03:21;;;;;;;11.00;2.42;;;8.90;99.90;;;;;;5070573;28;21135;-74
2021/12/18 10:05:46;;;;;;;14.02;2.65;;;8.90;99.90;;;;;;5070853;28;20410;-75
2021/12/18 10:08:18;;;;;;;13.43;2.63;;;8.90;99.90;;;;;;5070636;28;20417;-74
2021/12/18 10:11:02;;;;;;;11.23;2.50;;;8.90;99.90;;;;;;5095713;28;20499;-74
2021/12/18 10:13:28;;;;;;;12.18;2.53;;;8.90;99.90;;;;;;5091085;28;20763;-74
2021/12/18 10:16:12;;;;;;;13.75;2.88;;;9.00;99.90;;;;;;5090173;28;20405;-74
2021/12/18 10:18:38;;;;;;;10.75;2.50;;;9.00;99.90;;;;;;5108859;28;20416;-74
2021/12/18 10:21:14;;;;;;;15.35;3.13;;;9.00;99.90;;;;;;5108934;28;20416;-74
2021/12/18 10:23:42;;;;;;;15.85;2.72;;;9.10;99.90;;;;;;5090494;28;20789;-74
2021/12/18 10:26:28;;;;;;;9.53;2.70;;;9.10;99.90;;;;;;5089844;28;20495;-74
2021/12/18 10:28:53;;;;;;;11.10;2.72;;;9.10;99.90;;;;;;5108689;28;20755;-74
2021/12/18 10:31:41;;;;;;;14.53;3.20;;;9.10;99.90;;;;;;5109131;28;20434;-72
2021/12/18 10:34:20;;;;;;;15.13;3.40;;;9.10;99.90;;;;;;5090419;28;20408;-73
2021/12/18 10:37:14;;;;;;;17.75;3.92;;;9.10;99.90;;;;;;5090182;28;20555;-74
2021/12/18 10:39:53;;;;;;;17.80;4.25;;;9.10;99.90;;;;;;5108414;28;20425;-74
2021/12/18 10:42:42;;;;;;;17.42;3.95;;;9.10;99.90;;;;;;5088109;28;20498;-74
2021/12/18 10:45:12;;;;;;;15.68;3.90;;;9.10;99.90;;;;;;5089636;28;20845;-74
2021/12/18 10:47:59;;;;;;;15.02;3.80;;;9.10;99.90;;;;;;5106431;28;20416;-75
2021/12/18 10:50:37;;;;;;;13.70;3.72;;;9.10;99.90;;;;;;5101664;28;21928;-75
2021/12/18 10:53:07;;;;;;;14.88;3.80;;;9.10;99.90;;;;;;5090521;28;20423;-75
2021/12/18 10:55:45;;;;;;;15.90;3.97;;;9.10;99.90;;;;;;5108571;28;20405;-75
2021/12/18 10:58:33;;;;;;;11.48;3.17;;;9.10;99.90;;;;;;5090861;28;20930;-75
2021/12/18 11:01:12;;;;;;;14.43;3.35;;;9.10;99.90;;;;;;5083908;28;20437;-75
2021/12/18 11:03:46;;;;;;;18.17;3.60;;;9.20;99.90;;;;;;5101491;28;20936;-75
2021/12/18 11:06:26;;;;;;;12.52;3.15;;;9.20;99.90;;;;;;5089235;28;20424;-74
2021/12/18 11:09:09;;;;;;;12.85;3.10;;;9.20;99.90;;;;;;5089449;28;20416;-75
2021/12/18 11:14:32;;;;;;;14.23;3.13;;;9.20;99.90;;;;;;5090437;28;20447;-75
2021/12/18 11:17:01;;;;;;;14.15;3.10;;;9.20;99.90;;;;;;5089554;28;20411;-75
2021/12/18 11:19:29;;;;;;;11.45;2.85;;;9.20;99.90;;;;;;5089163;28;20408;-74
2021/12/18 11:21:58;;;;;;;13.75;3.60;;;9.20;99.90;;;;;;5072650;28;20507;-75
2021/12/18 11:24:34;;;;;;;13.60;3.88;;;9.30;99.90;;;;;;5090024;28;20480;-75
2021/12/18 11:27:08;;;;;;;15.55;4.65;;;9.30;99.90;;;;;;5090009;28;20416;-74
2021/12/18 11:29:44;;;;;;;15.13;5.05;;;9.30;99.90;;;;;;5090393;28;20469;-74
2021/12/18 11:32:16;;;;;;;11.20;2.92;;;9.30;99.90;;;;;;5089786;28;20420;-75
2021/12/18 11:34:42;;;;;;;12.50;3.88;;;9.30;99.90;;;;;;5071969;28;20495;-74
2021/12/18 11:37:11;;;;;;;15.98;3.90;;;9.40;99.90;;;;;;5083349;28;20403;-74
2021/12/18 11:39:38;;;;;;;15.15;3.88;;;9.40;99.90;;;;;;5087996;28;20408;-74
2021/12/18 11:42:05;;;;;;;13.85;3.20;;;9.40;99.90;;;;;;5088751;28;20869;-74
2021/12/18 11:44:32;;;;;;;13.68;3.10;;;9.40;99.90;;;;;;5089618;28;21086;-75
2021/12/18 11:47:19;;;;;;;12.93;2.90;;;9.40;99.90;;;;;;5088988;28;20944;-74
2021/12/18 11:49:44;;;;;;;11.77;3.47;;;9.40;99.90;;;;;;5088634;28;20459;-75
2021/12/18 11:52:10;;;;;;;11.73;3.20;;;9.40;99.90;;;;;;5107915;28;20792;-75
2021/12/18 11:54:45;;;;;;;15.07;3.53;;;9.40;99.90;;;;;;5089504;28;20748;-74
2021/12/18 11:57:12;;;;;;;12.77;3.00;;;9.40;99.90;;;;;;5089638;28;20408;-75
2021/12/18 11:59:44;;;;;;;14.15;3.63;;;9.40;99.90;;;;;;5072206;28;20487;-74
2021/12/18 12:02:12;;;;;;;14.40;4.00;;;9.40;99.90;;;;;;5107660;28;20469;-75
2021/12/18 12:05:04;;;;;;;15.60;3.30;;;9.40;99.90;;;;;;5089539;28;20400;-75
2021/12/18 12:07:30;;;;;;;11.48;3.28;;;9.40;99.90;;;;;;5089382;28;20822;-74
2021/12/18 12:10:34;;;;;;;13.35;3.22;;;9.40;99.90;;;;;;5088666;28;20454;-75
2021/12/18 12:13:00;;;;;;;16.50;3.90;;;9.40;99.90;;;;;;5089071;28;20404;-75
2021/12/18 12:15:27;;;;;;;12.30;3.28;;;9.40;99.90;;;;;;5089643;28;20845;-75
2021/12/18 12:17:57;;;;;;;15.02;3.55;;;9.40;99.90;;;;;;5093062;28;20460;-75
2021/12/18 12:20:36;;;;;;;12.65;3.72;;;9.50;99.90;;;;;;5112379;28;20392;-75
2021/12/18 12:23:03;;;;;;;16.23;4.20;;;9.40;99.90;;;;;;5112464;28;20460;-75
2021/12/18 12:25:34;;;;;;;12.43;3.85;;;9.50;99.90;;;;;;5112473;28;20728;-75
2021/12/18 12:28:04;;;;;;;13.38;3.63;;;9.50;99.90;;;;;;5094478;28;20809;-74
2021/12/18 12:30:42;;;;;;;12.95;4.40;;;9.50;99.90;;;;;;5070813;28;20812;-75
2021/12/18 12:33:29;;;;;;;14.13;3.22;;;9.40;99.90;;;;;;5066582;28;20450;-75
2021/12/18 12:36:06;;;;;;;18.48;7.60;;;9.40;99.90;;;;;;5069675;28;20433;-75
2021/12/18 12:38:53;;;;;;;13.27;3.70;;;9.50;99.90;;;;;;5056853;28;20414;-75
2021/12/18 12:41:48;;;;;;;16.07;5.57;;;9.40;99.90;;;;;;5064631;28;20417;-75
2021/12/18 12:44:28;;;;;;;14.63;5.37;;;9.40;99.90;;;;;;5082686;28;20455;-75
2021/12/18 12:47:13;;;;;;;15.73;4.47;;;9.40;99.90;;;;;;5086513;28;21050;-75
2021/12/18 12:49:39;;;;;;;17.88;6.25;;;9.40;99.90;;;;;;5070175;28;20431;-75
2021/12/18 12:52:08;;;;;;;14.07;4.93;;;9.40;99.90;;;;;;5082844;28;20495;-75
2021/12/18 12:54:59;;;;;;;19.33;8.45;;;9.40;99.90;;;;;;5101062;28;20413;-75
2021/12/18 12:57:27;;;;;;;14.15;3.97;;;9.40;99.90;;;;;;5065467;28;20419;-74
2021/12/18 12:59:59;;;;;;;10.68;3.33;;;9.40;99.90;;;;;;5054102;28;20427;-74
2021/12/18 13:02:26;;;;;;;14.35;4.05;;;9.40;99.90;;;;;;5069941;28;20424;-74
2021/12/18 13:05:01;;;;;;;14.73;4.97;;;9.40;99.90;;;;;;5068766;28;20489;-75
2021/12/18 13:07:27;;;;;;;13.02;4.15;;;9.40;99.90;;;;;;5072733;28;20414;-73
2021/12/18 13:09:53;;;;;;;13.50;3.83;;;9.40;99.90;;;;;;5073034;28;20467;-74
2021/12/18 13:12:19;;;;;;;16.70;6.07;;;9.40;99.90;;;;;;5073134;28;20410;-74
2021/12/18 13:14:46;;;;;;;19.73;6.22;;;9.40;99.90;;;;;;5072921;28;20901;-74
2021/12/18 13:17:19;;;;;;;14.57;4.20;;;9.40;99.90;;;;;;5073102;28;20414;-74
2021/12/18 13:19:56;;;;;;;15.38;3.97;;;9.30;99.90;;;;;;5072624;28;20398;-74
2021/12/18 13:22:26;;;;;;;14.85;4.15;;;9.30;99.90;;;;;;5056796;28;20429;-74
2021/12/18 13:25:14;;;;;;;16.63;4.38;;;9.30;99.90;;;;;;5072752;28;20923;-74
2021/12/18 13:28:00;;;;;;;17.85;4.90;;;9.30;99.90;;;;;;5072051;28;20446;-74
2021/12/18 13:30:26;;;;;;;14.93;3.83;;;9.40;99.90;;;;;;5072698;28;20410;-74
2021/12/18 13:32:54;;;;;;;15.10;3.95;;;9.40;99.90;;;;;;5073034;28;20497;-74
2021/12/18 13:35:22;;;;;;;14.80;4.05;;;9.30;99.90;;;;;;5072687;28;20931;-74
2021/12/18 13:37:58;;;;;;;14.40;4.00;;;9.30;99.90;;;;;;5056566;28;20771;-75
2021/12/18 13:40:28;;;;;;;14.82;4.57;;;9.30;99.90;;;;;;5073187;28;20475;-75
2021/12/18 13:43:10;;;;;;;12.75;4.18;;;9.30;99.90;;;;;;5090454;28;20453;-75